Time;durP1;ratioP1;P1;durP2;ratioP2;P2;SDS_P1;SDS_P2;PMS_P1;PMS_P2;Temp;Humidity;BMP_temperature;BMP_pressure;BME280_temperature;BME280_humidity;BME280_pressure;Samples;Min_cycle;Max_cycle;Signal;HPM_P1;HPM_P2
2022/09/18 00:00:54;;;;;;;11.73;1.27;;;9.60;99.90;;;;;;4933877;29;20066;-82
2022/09/18 00:03:20;;;;;;;9.10;1.15;;;9.60;99.90;;;;;;4951269;28;20051;-83
2022/09/18 00:05:46;;;;;;;9.90;1.23;;;9.60;99.90;;;;;;4953457;28;20099;-82
2022/09/18 00:08:11;;;;;;;11.13;1.30;;;9.60;99.90;;;;;;4951793;29;20377;-83
2022/09/18 00:10:45;;;;;;;10.98;1.15;;;9.60;99.90;;;;;;4950060;29;20054;-83
2022/09/18 00:13:12;;;;;;;10.02;1.25;;;9.60;99.90;;;;;;4950852;29;20045;-83
2022/09/18 00:15:39;;;;;;;5.30;0.88;;;9.60;99.90;;;;;;4950167;29;20061;-82
2022/09/18 00:18:05;;;;;;;6.97;1.25;;;9.60;99.90;;;;;;4950718;28;20492;-83
2022/09/18 00:20:35;;;;;;;9.65;1.38;;;9.60;99.90;;;;;;4950507;29;20047;-83
2022/09/18 00:23:00;;;;;;;10.05;1.65;;;9.50;99.90;;;;;;4945590;28;20054;-83
2022/09/18 00:25:26;;;;;;;11.50;1.58;;;9.50;99.90;;;;;;4950633;29;20036;-83
2022/09/18 00:27:51;;;;;;;8.50;1.13;;;9.50;99.90;;;;;;4933190;29;20074;-83
2022/09/18 00:30:17;;;;;;;7.75;1.00;;;9.50;99.90;;;;;;4932947;29;20074;-83
2022/09/18 00:32:43;;;;;;;5.88;1.13;;;9.60;99.90;;;;;;4948800;29;20062;-83
2022/09/18 00:35:08;;;;;;;6.55;1.50;;;9.60;99.90;;;;;;4934158;29;20054;-82
2022/09/18 00:37:34;;;;;;;5.35;0.80;;;9.60;99.90;;;;;;4952233;29;20031;-83
2022/09/18 00:40:00;;;;;;;9.05;1.25;;;9.60;99.90;;;;;;4933902;29;20043;-83
2022/09/18 00:42:25;;;;;;;6.15;1.08;;;9.60;99.90;;;;;;4950610;28;20399;-83
2022/09/18 00:44:51;;;;;;;10.23;1.13;;;9.80;99.90;;;;;;4933380;29;20126;-83
2022/09/18 00:47:23;;;;;;;10.82;1.13;;;9.70;99.90;;;;;;4933913;29;20488;-83
2022/09/18 00:49:57;;;;;;;13.98;1.10;;;9.70;99.90;;;;;;4949877;29;20039;-83
2022/09/18 00:52:27;;;;;;;8.98;1.00;;;9.70;99.90;;;;;;4933245;29;20059;-83
2022/09/18 00:55:00;;;;;;;5.93;0.93;;;9.70;99.90;;;;;;4946985;29;20043;-83
2022/09/18 00:57:29;;;;;;;9.40;1.00;;;9.70;99.90;;;;;;4949397;29;20540;-83
2022/09/18 00:59:55;;;;;;;11.80;1.10;;;9.70;99.90;;;;;;4928855;29;20059;-83
2022/09/18 01:02:21;;;;;;;9.13;1.10;;;9.70;99.90;;;;;;4950445;29;20043;-83
2022/09/18 01:04:48;;;;;;;5.82;0.95;;;9.70;99.90;;;;;;4935126;28;20062;-83
2022/09/18 01:07:55;;;;;;;8.32;1.17;;;9.70;99.90;;;;;;4931169;29;20055;-83
2022/09/18 01:10:26;;;;;;;7.28;1.10;;;9.70;99.90;;;;;;4900218;29;20055;-83
2022/09/18 01:12:56;;;;;;;11.80;1.10;;;9.80;99.90;;;;;;4931015;29;20091;-82
2022/09/18 01:15:45;;;;;;;9.52;0.80;;;9.80;99.90;;;;;;4925359;29;20051;-83
2022/09/18 01:18:23;;;;;;;7.28;0.90;;;9.80;99.90;;;;;;4927921;29;20039;-83
2022/09/18 01:21:01;;;;;;;7.65;1.27;;;9.80;99.90;;;;;;4929823;29;20043;-82
2022/09/18 01:23:39;;;;;;;9.65;1.30;;;9.80;99.90;;;;;;4911081;29;20083;-83
2022/09/18 01:26:35;;;;;;;8.20;1.00;;;9.80;99.90;;;;;;4930240;29;20035;-83
2022/09/18 01:29:19;;;;;;;10.80;1.42;;;9.70;99.90;;;;;;4928828;29;20048;-83
2022/09/18 01:31:49;;;;;;;10.50;1.10;;;9.70;99.90;;;;;;4913678;29;20048;-83
2022/09/18 01:34:36;;;;;;;10.18;1.38;;;9.70;99.90;;;;;;4913764;29;20063;-84
2022/09/18 01:37:10;;;;;;;7.93;1.17;;;9.60;99.90;;;;;;4915061;29;20036;-83
2022/09/18 01:39:42;;;;;;;8.02;1.02;;;9.60;99.90;;;;;;4929429;29;20048;-83
2022/09/18 01:42:10;;;;;;;5.13;0.88;;;9.60;99.90;;;;;;4924164;29;20052;-83
2022/09/18 01:44:39;;;;;;;11.18;1.23;;;9.60;99.90;;;;;;4931936;29;20088;-83
2022/09/18 01:47:11;;;;;;;7.03;0.85;;;9.60;99.90;;;;;;4914509;29;20493;-83
2022/09/18 01:49:41;;;;;;;8.32;1.13;;;9.60;99.90;;;;;;4926565;29;20040;-83
2022/09/18 01:52:32;;;;;;;8.73;1.08;;;9.50;99.90;;;;;;4913356;29;20382;-83
2022/09/18 01:55:02;;;;;;;6.07;1.10;;;9.50;99.90;;;;;;4913218;29;20044;-82
2022/09/18 01:57:36;;;;;;;9.00;1.50;;;9.50;99.90;;;;;;4928705;29;20100;-82
2022/09/18 02:00:11;;;;;;;9.63;1.25;;;9.50;99.90;;;;;;4912943;29;20515;-83
2022/09/18 02:02:55;;;;;;;7.60;1.00;;;9.50;99.90;;;;;;4930923;29;20039;-83
2022/09/18 02:05:28;;;;;;;5.03;0.85;;;9.50;99.90;;;;;;4928370;29;20056;-83
2022/09/18 02:08:18;;;;;;;12.27;1.25;;;9.40;99.90;;;;;;4914481;29;20055;-83
2022/09/18 02:10:50;;;;;;;10.30;1.08;;;9.40;99.90;;;;;;4926049;29;20043;-83
2022/09/18 02:13:19;;;;;;;9.23;1.20;;;9.40;99.90;;;;;;4930046;29;20044;-83
2022/09/18 02:15:48;;;;;;;12.32;1.55;;;9.40;99.90;;;;;;4931179;29;20815;-83
2022/09/18 02:18:25;;;;;;;5.00;1.00;;;9.40;99.90;;;;;;4928986;29;20046;-82
2022/09/18 02:20:52;;;;;;;5.32;0.93;;;9.40;99.90;;;;;;4943671;29;20296;-82
2022/09/18 02:23:18;;;;;;;11.63;1.40;;;9.40;99.90;;;;;;4926279;29;20061;-83
2022/09/18 02:25:54;;;;;;;7.35;1.15;;;9.40;99.90;;;;;;4928392;29;20044;-83
2022/09/18 02:28:22;;;;;;;14.80;1.45;;;9.40;99.90;;;;;;4926154;29;20051;-83
2022/09/18 02:30:48;;;;;;;8.57;1.27;;;9.50;99.90;;;;;;4926549;29;20115;-83
2022/09/18 02:33:28;;;;;;;11.02;1.10;;;9.50;99.90;;;;;;4930441;29;20044;-83
2022/09/18 02:36:19;;;;;;;8.85;1.52;;;9.50;99.90;;;;;;4928474;29;20079;-82
2022/09/18 02:38:56;;;;;;;11.60;1.17;;;9.60;99.90;;;;;;4926999;29;20131;-83
2022/09/18 02:41:40;;;;;;;9.90;0.80;;;9.50;99.90;;;;;;4926890;29;20059;-83
2022/09/18 02:44:12;;;;;;;7.03;1.40;;;9.60;99.90;;;;;;4927273;29;20067;-83
2022/09/18 02:46:48;;;;;;;8.32;0.95;;;9.60;99.90;;;;;;4928745;29;20633;-82
2022/09/18 02:49:22;;;;;;;14.38;1.83;;;9.60;99.90;;;;;;4928441;29;20135;-83
2022/09/18 02:51:56;;;;;;;6.47;1.05;;;9.60;99.90;;;;;;4926635;29;20044;-83
2022/09/18 02:54:31;;;;;;;11.98;1.30;;;9.60;99.90;;;;;;4927497;29;20059;-83
2022/09/18 02:57:15;;;;;;;9.70;1.33;;;9.70;99.90;;;;;;4926360;29;20092;-83
2022/09/18 02:59:55;;;;;;;13.15;1.45;;;9.70;99.90;;;;;;4926954;29;20055;-83
2022/09/18 03:02:21;;;;;;;5.40;0.90;;;9.80;99.90;;;;;;4926024;29;20507;-83
2022/09/18 03:04:47;;;;;;;9.68;1.20;;;9.70;99.90;;;;;;4943800;28;20048;-83
2022/09/18 03:07:14;;;;;;;6.68;0.85;;;9.80;99.90;;;;;;4934488;29;20051;-82
2022/09/18 03:09:40;;;;;;;12.63;1.33;;;9.80;99.90;;;;;;4934773;29;20055;-83
2022/09/18 03:12:07;;;;;;;6.45;1.35;;;9.80;99.90;;;;;;4935271;29;20046;-83
2022/09/18 03:14:34;;;;;;;8.48;1.27;;;9.80;99.90;;;;;;4958936;28;20094;-83
2022/09/18 03:16:59;;;;;;;8.98;1.23;;;9.90;99.90;;;;;;4932126;29;20457;-82
2022/09/18 03:19:25;;;;;;;9.60;1.13;;;9.90;99.90;;;;;;4932496;29;20050;-83
2022/09/18 03:21:51;;;;;;;13.63;1.25;;;9.90;99.90;;;;;;4951272;29;20047;-82
2022/09/18 03:24:18;;;;;;;8.05;1.27;;;9.90;99.90;;;;;;4934990;29;20488;-82
2022/09/18 03:26:44;;;;;;;7.80;1.20;;;10.00;99.90;;;;;;4959120;28;20043;-83
2022/09/18 03:29:10;;;;;;;9.80;1.30;;;10.00;99.90;;;;;;4951754;29;20166;-83
2022/09/18 03:31:36;;;;;;;8.38;0.95;;;10.00;99.90;;;;;;4934977;29;20510;-83
2022/09/18 03:34:02;;;;;;;9.90;1.00;;;10.10;99.90;;;;;;4934438;29;20047;-83
2022/09/18 03:36:28;;;;;;;7.00;1.65;;;10.10;99.90;;;;;;4951390;29;20191;-83
2022/09/18 03:38:54;;;;;;;12.48;1.45;;;10.10;99.90;;;;;;4933873;29;20130;-83
2022/09/18 03:41:21;;;;;;;10.50;1.10;;;10.10;99.90;;;;;;4950792;28;20039;-83
2022/09/18 03:43:47;;;;;;;9.98;1.10;;;10.10;99.90;;;;;;4951255;29;20058;-83
2022/09/18 03:46:13;;;;;;;9.45;1.17;;;10.10;99.90;;;;;;4948045;29;20031;-83
2022/09/18 03:48:38;;;;;;;11.00;1.15;;;10.10;99.90;;;;;;4934049;29;20051;-83
2022/09/18 03:51:04;;;;;;;9.15;0.93;;;10.10;99.90;;;;;;4933580;29;20047;-83
2022/09/18 03:53:30;;;;;;;13.00;1.65;;;10.10;99.90;;;;;;4934227;29;20055;-83
2022/09/18 03:55:55;;;;;;;9.73;1.17;;;10.10;99.90;;;;;;4951114;29;20122;-83
2022/09/18 03:58:21;;;;;;;6.03;0.73;;;10.10;99.90;;;;;;4950880;29;20043;-83
2022/09/18 04:00:46;;;;;;;7.28;0.90;;;10.10;99.90;;;;;;4933742;29;20057;-83
2022/09/18 04:03:12;;;;;;;5.72;1.05;;;10.00;99.90;;;;;;4933607;28;20043;-83
2022/09/18 04:05:38;;;;;;;10.00;0.93;;;10.00;99.90;;;;;;4950765;28;20260;-83
2022/09/18 04:08:04;;;;;;;10.93;1.67;;;10.00;99.90;;;;;;4949636;28;20123;-83
2022/09/18 04:10:33;;;;;;;11.93;1.30;;;10.00;99.90;;;;;;4934433;29;20083;-83
2022/09/18 04:12:59;;;;;;;6.65;1.45;;;10.00;99.90;;;;;;4933915;29;20054;-83
2022/09/18 04:15:27;;;;;;;10.20;0.93;;;10.00;99.90;;;;;;4950574;28;20051;-83
2022/09/18 04:17:53;;;;;;;7.32;0.80;;;10.10;99.90;;;;;;4932114;29;20480;-82
2022/09/18 04:20:18;;;;;;;10.43;1.40;;;10.00;99.90;;;;;;4932754;29;20055;-83
2022/09/18 04:22:44;;;;;;;8.38;0.90;;;10.00;99.90;;;;;;4950774;28;20043;-83
2022/09/18 04:25:09;;;;;;;7.70;0.85;;;10.00;99.90;;;;;;4933578;29;20114;-83
2022/09/18 04:27:35;;;;;;;6.50;0.90;;;10.30;99.90;;;;;;4951296;28;20043;-83
2022/09/18 04:30:04;;;;;;;7.63;1.20;;;10.00;99.90;;;;;;4931961;29;20073;-83
2022/09/18 04:32:30;;;;;;;5.68;0.90;;;10.00;99.90;;;;;;4951902;29;20075;-84
2022/09/18 04:34:56;;;;;;;6.57;0.80;;;10.00;99.90;;;;;;4949998;28;20081;-83
2022/09/18 04:37:22;;;;;;;6.15;0.88;;;10.00;99.90;;;;;;4950827;28;20039;-83
2022/09/18 04:39:47;;;;;;;3.70;0.68;;;10.00;99.90;;;;;;4933782;29;20058;-83
2022/09/18 04:42:13;;;;;;;5.47;0.77;;;10.00;99.90;;;;;;4928100;29;20065;-83
2022/09/18 04:44:39;;;;;;;5.97;0.80;;;10.00;99.90;;;;;;4949506;28;20082;-83
2022/09/18 04:47:05;;;;;;;5.20;0.70;;;10.00;99.90;;;;;;4933498;29;20047;-83
2022/09/18 04:49:30;;;;;;;9.23;1.00;;;10.00;99.90;;;;;;4948269;29;20142;-83
2022/09/18 04:51:56;;;;;;;7.53;0.80;;;10.00;99.90;;;;;;4950430;28;20044;-83
2022/09/18 04:54:22;;;;;;;5.97;0.80;;;10.00;99.90;;;;;;4949924;28;20047;-83
2022/09/18 04:56:47;;;;;;;4.78;0.70;;;10.00;99.90;;;;;;4950719;28;20043;-83
2022/09/18 04:59:13;;;;;;;7.10;0.93;;;9.90;99.90;;;;;;4931685;29;20065;-83
2022/09/18 05:01:39;;;;;;;6.57;1.42;;;10.00;99.90;;;;;;4931694;29;20103;-83
2022/09/18 05:04:05;;;;;;;4.80;0.82;;;9.90;99.90;;;;;;4949269;29;20050;-83
2022/09/18 05:06:31;;;;;;;8.43;1.02;;;9.90;99.90;;;;;;4949887;29;20067;-83
2022/09/18 05:08:57;;;;;;;8.18;0.98;;;9.90;99.90;;;;;;4933216;29;20527;-82
2022/09/18 05:11:23;;;;;;;8.65;1.30;;;9.90;99.90;;;;;;4949401;29;20053;-83
2022/09/18 05:13:49;;;;;;;7.78;0.98;;;9.90;99.90;;;;;;4934016;29;20058;-83
2022/09/18 05:16:15;;;;;;;7.05;1.00;;;10.00;99.90;;;;;;4947238;29;20118;-83
2022/09/18 05:18:41;;;;;;;5.70;0.90;;;10.00;99.90;;;;;;4946378;28;20573;-83
2022/09/18 05:21:06;;;;;;;7.20;0.73;;;10.00;99.90;;;;;;4929994;29;20129;-83
2022/09/18 05:23:33;;;;;;;9.05;1.40;;;10.00;99.90;;;;;;4951275;28;20122;-83
2022/09/18 05:26:00;;;;;;;8.70;1.00;;;10.00;99.90;;;;;;4947766;29;20054;-83
2022/09/18 05:28:25;;;;;;;7.40;0.77;;;10.00;99.90;;;;;;4931062;29;20538;-84
2022/09/18 05:30:51;;;;;;;7.60;0.93;;;10.00;99.90;;;;;;4932914;29;20071;-92
2022/09/18 05:33:17;;;;;;;6.25;1.20;;;10.00;99.90;;;;;;4929338;28;20051;-90
2022/09/18 05:35:42;;;;;;;5.53;1.05;;;10.10;99.90;;;;;;4934307;28;20047;-92
2022/09/18 05:38:10;;;;;;;8.63;0.88;;;10.10;99.90;;;;;;4952456;28;20090;-93
2022/09/18 05:40:36;;;;;;;8.07;1.00;;;10.10;99.90;;;;;;4950945;28;20035;-93
2022/09/18 05:43:03;;;;;;;6.53;0.80;;;10.10;99.90;;;;;;4952270;28;20503;-93
2022/09/18 05:45:29;;;;;;;9.50;1.20;;;10.10;99.90;;;;;;4931286;29;20043;-92
2022/09/18 05:48:00;;;;;;;5.47;1.13;;;10.20;99.90;;;;;;4932083;29;20448;-93
2022/09/18 05:50:27;;;;;;;5.68;0.57;;;10.20;99.90;;;;;;4950129;28;20075;-92
2022/09/18 05:53:04;;;;;;;4.88;0.50;;;10.20;99.90;;;;;;4952926;29;20090;-92
2022/09/18 05:55:31;;;;;;;6.15;0.60;;;10.20;99.90;;;;;;4947834;28;20046;-93
2022/09/18 05:57:58;;;;;;;3.67;0.55;;;10.20;99.90;;;;;;4935155;29;20090;-92
2022/09/18 06:00:25;;;;;;;7.22;0.88;;;10.20;99.90;;;;;;4952378;29;20095;-93
2022/09/18 06:02:59;;;;;;;5.38;0.75;;;10.20;99.90;;;;;;4952131;28;20055;-93
2022/09/18 06:05:25;;;;;;;4.25;0.50;;;10.30;99.90;;;;;;4944655;29;20050;-92
2022/09/18 06:07:51;;;;;;;5.57;0.73;;;10.30;99.90;;;;;;4952433;28;20038;-91
2022/09/18 06:10:18;;;;;;;6.50;0.90;;;10.30;99.90;;;;;;4950460;28;20033;-92
2022/09/18 06:12:44;;;;;;;5.28;1.05;;;10.30;99.90;;;;;;4946283;29;20051;-92
2022/09/18 06:15:11;;;;;;;8.98;1.00;;;10.40;99.90;;;;;;4935823;28;20043;-92
2022/09/18 06:17:37;;;;;;;8.80;1.00;;;10.40;99.90;;;;;;4954918;28;20484;-93
2022/09/18 06:20:05;;;;;;;6.50;1.30;;;10.40;99.90;;;;;;4937962;29;20046;-92
2022/09/18 06:22:31;;;;;;;5.75;0.90;;;10.40;99.90;;;;;;4951741;29;20396;-92
2022/09/18 06:24:57;;;;;;;9.40;0.90;;;10.50;99.90;;;;;;4951822;28;20039;-90
2022/09/18 06:27:24;;;;;;;10.38;1.23;;;10.50;99.90;;;;;;4933538;29;20484;-92
2022/09/18 06:29:49;;;;;;;7.82;0.82;;;10.50;99.90;;;;;;4941074;28;20039;-89
2022/09/18 06:32:15;;;;;;;9.93;0.88;;;10.50;99.90;;;;;;4946089;28;20051;-90
2022/09/18 06:34:41;;;;;;;3.72;0.80;;;10.50;99.90;;;;;;4945573;28;20140;-88
2022/09/18 06:37:10;;;;;;;5.90;1.13;;;10.50;99.90;;;;;;4949729;28;20043;-87
2022/09/18 06:39:37;;;;;;;7.22;1.20;;;10.50;99.90;;;;;;4947773;28;20479;-89
2022/09/18 06:42:03;;;;;;;4.72;0.68;;;10.50;99.90;;;;;;4944962;28;20058;-88
2022/09/18 06:44:29;;;;;;;10.98;1.10;;;10.50;99.90;;;;;;4932758;29;20408;-88
2022/09/18 06:46:54;;;;;;;7.72;0.90;;;10.60;99.90;;;;;;4948716;28;20043;-88
2022/09/18 06:49:20;;;;;;;6.32;0.95;;;10.60;99.90;;;;;;4935136;29;20129;-88
2022/09/18 06:51:47;;;;;;;8.10;1.20;;;10.60;99.90;;;;;;4948186;29;20047;-88
2022/09/18 06:54:13;;;;;;;6.43;0.90;;;10.60;99.90;;;;;;4950809;28;20050;-90
2022/09/18 06:56:39;;;;;;;7.65;1.00;;;10.70;99.90;;;;;;4940412;29;20119;-91
2022/09/18 06:59:04;;;;;;;6.82;1.00;;;10.70;99.90;;;;;;4947164;28;20047;-91
2022/09/18 07:01:30;;;;;;;10.98;1.10;;;10.70;99.90;;;;;;4931773;29;20513;-91
2022/09/18 07:03:56;;;;;;;9.77;1.02;;;10.80;99.90;;;;;;4947665;28;20059;-88
2022/09/18 07:06:21;;;;;;;8.02;0.93;;;10.80;99.90;;;;;;4931185;29;20055;-88
2022/09/18 07:08:47;;;;;;;8.25;1.00;;;10.80;99.90;;;;;;4947959;29;20381;-87
2022/09/18 07:11:12;;;;;;;5.75;1.00;;;10.90;99.90;;;;;;4943766;29;20134;-90
2022/09/18 07:13:38;;;;;;;8.57;0.98;;;10.90;99.90;;;;;;4947054;28;20099;-90
2022/09/18 07:16:04;;;;;;;9.48;1.23;;;10.90;99.90;;;;;;4947815;29;20050;-87
2022/09/18 07:18:30;;;;;;;4.20;1.05;;;11.00;99.90;;;;;;4945911;29;20070;-88
2022/09/18 07:20:58;;;;;;;6.70;1.10;;;11.00;99.90;;;;;;4946242;29;20065;-88
2022/09/18 07:23:24;;;;;;;8.00;1.23;;;11.00;99.90;;;;;;4926417;29;20059;-87
2022/09/18 07:25:49;;;;;;;10.10;1.20;;;11.00;99.90;;;;;;4930354;29;20039;-89
2022/09/18 07:28:15;;;;;;;12.07;1.45;;;11.00;99.90;;;;;;4946666;29;20060;-88
2022/09/18 07:30:41;;;;;;;6.55;1.10;;;11.00;99.90;;;;;;4931875;29;20054;-88
2022/09/18 07:33:08;;;;;;;10.50;1.63;;;11.00;99.90;;;;;;4928607;29;20048;-88
2022/09/18 07:35:34;;;;;;;12.35;1.73;;;11.00;99.90;;;;;;4929050;29;20052;-88
2022/09/18 07:38:01;;;;;;;8.60;1.25;;;11.00;99.90;;;;;;4947329;28;20059;-88
2022/09/18 07:40:28;;;;;;;6.57;0.90;;;11.00;99.90;;;;;;4938955;29;20043;-87
2022/09/18 07:43:06;;;;;;;9.05;1.45;;;11.00;99.90;;;;;;4941647;29;20375;-88
2022/09/18 07:45:32;;;;;;;9.68;1.70;;;11.00;99.90;;;;;;4941916;29;20045;-88
2022/09/18 07:48:05;;;;;;;6.97;1.20;;;11.00;99.90;;;;;;4947753;29;20537;-88
2022/09/18 07:50:31;;;;;;;7.20;0.98;;;11.00;99.90;;;;;;4932779;29;20074;-88
2022/09/18 07:53:00;;;;;;;6.80;1.13;;;11.00;99.90;;;;;;4950920;28;20075;-88
2022/09/18 07:55:26;;;;;;;5.22;0.80;;;11.00;99.90;;;;;;4948813;29;21777;-89
2022/09/18 07:57:58;;;;;;;6.20;1.00;;;11.00;99.90;;;;;;4952134;29;20043;-88
2022/09/18 08:00:26;;;;;;;12.13;1.33;;;11.00;99.90;;;;;;4928335;29;20175;-88
2022/09/18 08:03:01;;;;;;;6.75;1.00;;;11.00;99.90;;;;;;4946372;29;20048;-88
2022/09/18 08:05:26;;;;;;;8.30;1.00;;;11.30;99.90;;;;;;4952125;29;20427;-89
2022/09/18 08:07:52;;;;;;;6.35;0.90;;;10.90;99.90;;;;;;4952780;29;20048;-88
2022/09/18 08:10:17;;;;;;;6.65;1.02;;;11.00;99.90;;;;;;4951421;29;20381;-88
2022/09/18 08:12:43;;;;;;;7.22;0.98;;;11.00;99.90;;;;;;4951963;29;20054;-89
2022/09/18 08:15:09;;;;;;;6.28;0.70;;;11.00;99.90;;;;;;4932179;29;20150;-89
2022/09/18 08:17:42;;;;;;;10.75;1.20;;;11.00;99.90;;;;;;4939822;28;20055;-89
2022/09/18 08:20:08;;;;;;;8.48;1.38;;;11.00;99.90;;;;;;4931774;29;20703;-88
2022/09/18 08:22:37;;;;;;;8.55;1.23;;;11.00;99.90;;;;;;4932890;29;20056;-89
2022/09/18 08:25:03;;;;;;;5.75;1.00;;;11.00;99.90;;;;;;4951808;29;20059;-89
2022/09/18 08:27:28;;;;;;;7.15;0.90;;;11.00;99.90;;;;;;4951262;29;20039;-89
2022/09/18 08:29:54;;;;;;;5.32;0.80;;;11.00;99.90;;;;;;4931371;29;20489;-89
2022/09/18 08:32:20;;;;;;;7.00;0.88;;;11.10;99.90;;;;;;4939788;29;20400;-88
2022/09/18 08:34:45;;;;;;;8.43;1.30;;;11.10;99.90;;;;;;4948147;29;20102;-89
2022/09/18 08:37:11;;;;;;;8.07;1.10;;;11.10;99.90;;;;;;4951304;29;20122;-89
2022/09/18 08:39:36;;;;;;;3.47;0.68;;;10.50;99.90;;;;;;4951147;29;20135;-89
2022/09/18 08:42:34;;;;;;;7.65;0.98;;;11.00;99.90;;;;;;4930245;29;20125;-89
2022/09/18 08:45:19;;;;;;;7.78;1.00;;;11.00;99.90;;;;;;4951831;29;20051;-88
2022/09/18 08:47:55;;;;;;;9.13;1.10;;;11.00;99.90;;;;;;4929030;29;20055;-89
2022/09/18 08:50:25;;;;;;;7.13;1.17;;;11.00;99.90;;;;;;4948595;29;20043;-89
2022/09/18 08:52:57;;;;;;;7.28;1.50;;;11.00;99.90;;;;;;4931390;29;20104;-89
2022/09/18 08:55:30;;;;;;;5.88;1.08;;;11.00;99.90;;;;;;4928023;29;20520;-90
2022/09/18 08:58:00;;;;;;;6.72;1.00;;;11.00;99.90;;;;;;4921544;29;20099;-89
2022/09/18 09:00:31;;;;;;;9.30;0.98;;;11.00;99.90;;;;;;4932404;29;20102;-89
2022/09/18 09:03:38;;;;;;;8.50;0.90;;;11.00;99.90;;;;;;4942042;28;20051;-90
2022/09/18 09:06:18;;;;;;;3.78;0.80;;;11.00;99.90;;;;;;4928858;29;20184;-89
2022/09/18 09:09:11;;;;;;;5.20;0.90;;;11.10;99.90;;;;;;4949953;29;20082;-89
2022/09/18 09:12:16;;;;;;;4.15;0.60;;;11.10;99.90;;;;;;4952120;29;20043;-89
2022/09/18 09:15:00;;;;;;;6.60;0.60;;;11.10;99.90;;;;;;4936323;29;20105;-93
2022/09/18 09:17:53;;;;;;;6.85;0.85;;;11.10;99.90;;;;;;4951672;29;20043;-90
2022/09/18 09:20:23;;;;;;;6.15;0.90;;;11.10;99.90;;;;;;4951019;29;20059;-89
2022/09/18 09:23:04;;;;;;;8.07;0.70;;;11.10;99.90;;;;;;4947526;29;20051;-89
2022/09/18 09:26:06;;;;;;;6.35;0.80;;;11.20;99.90;;;;;;4947755;29;20538;-91
2022/09/18 09:28:45;;;;;;;7.05;0.75;;;11.10;99.90;;;;;;4949646;29;20040;-90
2022/09/18 09:31:13;;;;;;;3.33;0.90;;;11.10;99.90;;;;;;4931997;29;20073;-89
2022/09/18 09:33:46;;;;;;;5.32;0.93;;;11.00;99.90;;;;;;4952070;29;20044;-91
2022/09/18 09:36:19;;;;;;;6.35;0.80;;;11.00;99.90;;;;;;4953430;29;20373;-91
2022/09/18 09:39:00;;;;;;;5.80;0.90;;;11.00;99.90;;;;;;4952525;29;20102;-93
2022/09/18 09:41:32;;;;;;;9.35;1.00;;;11.00;99.90;;;;;;4952163;29;20135;-92
2022/09/18 09:44:26;;;;;;;6.90;0.75;;;11.00;99.90;;;;;;4936393;29;20452;-92
2022/09/18 09:47:07;;;;;;;4.82;1.23;;;11.00;99.90;;;;;;4934155;29;20051;-92
2022/09/18 09:49:45;;;;;;;4.95;0.65;;;11.00;99.90;;;;;;4951573;28;20043;-92
2022/09/18 09:52:24;;;;;;;6.78;0.80;;;11.00;99.90;;;;;;4952238;29;20047;-92
2022/09/18 09:55:20;;;;;;;4.78;0.80;;;11.00;99.90;;;;;;4949493;28;20050;-90
2022/09/18 09:57:48;;;;;;;;;;;11.00;99.90;;;;;;4949277;29;20051;-91
2022/09/18 10:00:19;;;;;;;6.38;1.48;;;11.00;99.90;;;;;;4951436;29;19970;-91
2022/09/18 10:03:03;;;;;;;5.15;1.20;;;11.00;99.90;;;;;;4930538;29;20048;-91
2022/09/18 10:05:37;;;;;;;9.00;0.85;;;11.10;99.90;;;;;;4935004;29;20050;-89
2022/09/18 10:08:14;;;;;;;;;;;11.10;99.90;;;;;;4948465;29;20039;-89
2022/09/18 10:10:55;;;;;;;6.40;0.95;;;11.20;99.90;;;;;;4932227;29;19933;-89
2022/09/18 10:13:26;;;;;;;6.82;0.93;;;11.20;99.90;;;;;;4947981;29;20031;-87
2022/09/18 10:16:17;;;;;;;5.45;1.05;;;11.20;99.90;;;;;;4948725;28;20400;-88
2022/09/18 10:18:45;;;;;;;8.25;1.20;;;11.30;99.90;;;;;;4929028;29;20047;-91
2022/09/18 10:21:17;;;;;;;5.93;1.00;;;11.30;99.90;;;;;;4931757;29;20051;-90
2022/09/18 10:24:15;;;;;;;7.55;1.30;;;11.30;99.90;;;;;;4915625;29;20054;-91
2022/09/18 10:27:13;;;;;;;7.63;1.30;;;11.40;99.90;;;;;;4932266;29;20050;-89
2022/09/18 10:29:39;;;;;;;7.30;1.30;;;11.30;99.90;;;;;;4939672;28;20073;-90
2022/09/18 10:32:05;;;;;;;5.55;0.90;;;11.40;99.90;;;;;;4949509;28;20118;-91
2022/09/18 10:34:39;;;;;;;6.03;1.02;;;11.40;99.90;;;;;;4950009;28;20568;-91
2022/09/18 10:37:32;;;;;;;7.20;0.90;;;11.40;99.90;;;;;;4931871;29;20102;-90
2022/09/18 10:40:00;;;;;;;8.55;1.13;;;11.40;99.90;;;;;;4939034;28;20047;-92
2022/09/18 10:42:31;;;;;;;9.05;1.83;;;11.40;99.90;;;;;;4932070;29;20051;-91
2022/09/18 10:45:01;;;;;;;8.75;1.55;;;11.40;99.90;;;;;;4929214;29;20126;-91
2022/09/18 10:47:28;;;;;;;9.20;1.25;;;11.50;99.90;;;;;;4949666;29;20086;-87
2022/09/18 10:50:15;;;;;;;7.03;0.93;;;11.60;99.90;;;;;;4932381;29;20377;-87
2022/09/18 10:52:42;;;;;;;8.20;1.27;;;11.60;99.90;;;;;;4932171;29;20119;-86
2022/09/18 10:55:13;;;;;;;10.48;1.45;;;11.70;99.90;;;;;;4954388;28;20526;-86
2022/09/18 10:57:59;;;;;;;8.15;1.63;;;11.70;99.90;;;;;;4954400;28;20055;-85
2022/09/18 11:00:26;;;;;;;8.70;1.90;;;11.70;99.90;;;;;;4945531;28;20122;-84
2022/09/18 11:03:13;;;;;;;9.88;2.67;;;11.80;99.90;;;;;;4955021;28;20142;-85
2022/09/18 11:05:55;;;;;;;6.93;1.35;;;11.90;99.90;;;;;;4951412;28;20057;-85
2022/09/18 11:08:26;;;;;;;8.00;1.65;;;12.00;99.90;;;;;;4952750;28;20059;-86
2022/09/18 11:11:00;;;;;;;16.10;3.97;;;12.00;99.90;;;;;;4936122;29;20137;-85
2022/09/18 11:13:26;;;;;;;;;;;12.10;99.90;;;;;;4953853;28;20066;-86
2022/09/18 11:15:57;;;;;;;10.63;1.45;;;12.10;99.90;;;;;;4935381;29;19923;-86
2022/09/18 11:18:24;;;;;;;12.23;2.10;;;12.20;99.90;;;;;;4937605;29;20453;-88
2022/09/18 11:20:52;;;;;;;15.00;1.50;;;12.30;99.90;;;;;;4958801;28;20051;-87
2022/09/18 11:23:17;;;;;;;8.93;1.73;;;12.30;99.90;;;;;;4937400;29;20069;-87
2022/09/18 11:25:44;;;;;;;8.98;1.33;;;12.40;99.90;;;;;;4954582;28;20134;-86
2022/09/18 11:28:26;;;;;;;9.45;2.00;;;12.50;99.90;;;;;;4938919;28;20036;-87
2022/09/18 11:31:02;;;;;;;8.85;1.40;;;12.50;99.90;;;;;;4956855;28;20103;-86
2022/09/18 11:33:36;;;;;;;6.88;1.15;;;12.50;99.90;;;;;;4940150;28;20043;-87
2022/09/18 11:36:06;;;;;;;5.90;1.13;;;12.70;99.90;;;;;;4943186;28;20053;-87
2022/09/18 11:38:39;;;;;;;6.72;0.98;;;12.70;99.90;;;;;;4957628;28;20051;-86
2022/09/18 11:41:04;;;;;;;9.20;1.10;;;12.70;99.90;;;;;;4953578;28;20449;-86
2022/09/18 11:43:35;;;;;;;8.60;1.10;;;12.80;99.90;;;;;;4933797;28;20043;-86
2022/09/18 11:46:29;;;;;;;7.22;1.30;;;12.80;99.90;;;;;;4957651;28;20047;-87
2022/09/18 11:49:13;;;;;;;8.48;1.33;;;12.90;99.90;;;;;;4955857;29;20040;-86
2022/09/18 11:51:55;;;;;;;6.07;1.25;;;13.00;99.90;;;;;;4952811;29;20118;-86
2022/09/18 11:54:32;;;;;;;11.95;1.33;;;13.20;99.90;;;;;;4951031;28;20075;-86
2022/09/18 11:57:01;;;;;;;6.43;1.30;;;13.10;99.90;;;;;;4940690;28;20178;-87
2022/09/18 11:59:41;;;;;;;7.25;0.90;;;13.20;99.90;;;;;;4956579;29;20074;-86
2022/09/18 12:02:12;;;;;;;7.53;1.48;;;13.20;99.90;;;;;;4957494;28;20404;-86
2022/09/18 12:04:48;;;;;;;12.07;1.90;;;13.30;99.90;;;;;;4944781;29;20496;-86
2022/09/18 12:07:28;;;;;;;6.78;2.08;;;13.30;99.90;;;;;;4955757;28;20769;-86
2022/09/18 12:10:01;;;;;;;7.65;1.98;;;13.30;99.90;;;;;;4951093;28;20115;-86
2022/09/18 12:12:33;;;;;;;10.00;1.70;;;13.40;99.90;;;;;;4939429;28;20039;-86
2022/09/18 12:15:11;;;;;;;11.02;1.90;;;13.40;99.90;;;;;;4937168;29;20606;-86
2022/09/18 12:17:58;;;;;;;16.83;2.40;;;13.30;99.90;;;;;;4954456;28;20054;-86
2022/09/18 12:20:31;;;;;;;12.15;2.03;;;13.40;99.90;;;;;;4954759;28;20122;-85
2022/09/18 12:22:58;;;;;;;13.10;2.63;;;13.30;99.90;;;;;;4943601;29;20062;-86
2022/09/18 12:25:52;;;;;;;8.32;2.28;;;13.30;99.90;;;;;;4955689;29;20047;-87
2022/09/18 12:28:28;;;;;;;10.45;1.63;;;13.30;99.90;;;;;;4956237;28;20043;-86
2022/09/18 12:31:15;;;;;;;9.68;1.60;;;13.30;99.90;;;;;;4954741;28;20059;-86
2022/09/18 12:34:10;;;;;;;12.27;1.30;;;13.40;99.90;;;;;;4955558;28;20074;-86
2022/09/18 12:36:52;;;;;;;12.23;1.63;;;13.40;99.90;;;;;;4938654;29;20488;-86
2022/09/18 12:39:33;;;;;;;8.75;1.85;;;13.50;99.90;;;;;;4957056;28;20050;-86
2022/09/18 12:42:07;;;;;;;9.43;2.22;;;13.60;99.90;;;;;;4954205;28;20290;-86
2022/09/18 12:44:58;;;;;;;14.60;1.65;;;13.70;99.90;;;;;;4958306;28;20067;-85
2022/09/18 12:47:45;;;;;;;15.77;2.60;;;13.70;99.90;;;;;;4955615;28;20039;-86
2022/09/18 12:50:17;;;;;;;11.18;1.98;;;13.80;99.90;;;;;;4945297;28;20507;-86
2022/09/18 12:53:13;;;;;;;4.45;1.30;;;13.90;99.90;;;;;;4950203;28;20396;-86
2022/09/18 12:56:01;;;;;;;11.75;1.45;;;13.80;99.90;;;;;;4946002;28;20138;-85
2022/09/18 12:58:38;;;;;;;7.45;1.10;;;13.90;99.90;;;;;;4945142;28;20046;-86
2022/09/18 13:01:19;;;;;;;7.63;0.90;;;13.90;99.90;;;;;;4931646;29;20122;-86
2022/09/18 13:03:48;;;;;;;7.15;0.90;;;13.80;99.90;;;;;;4933287;29;20063;-86
2022/09/18 13:06:19;;;;;;;4.97;1.15;;;13.80;99.90;;;;;;4931078;28;20095;-86
2022/09/18 13:08:56;;;;;;;6.22;1.40;;;13.80;99.90;;;;;;4932405;29;20488;-86
2022/09/18 13:11:39;;;;;;;7.95;1.70;;;13.70;99.90;;;;;;4948061;28;20559;-85